createdAt,value
2022-10-17T13:10:52.404Z,7.07
2022-10-17T13:13:24.596Z,3.58
2022-10-17T13:15:54.497Z,5.57
2022-10-17T13:18:24.120Z,5.07
2022-10-17T13:21:00.679Z,5.32
2022-10-17T13:23:32.321Z,5.63
2022-10-17T13:26:20.080Z,14.18
2022-10-17T13:29:03.522Z,4.03
2022-10-17T13:31:33.424Z,4.22
2022-10-17T13:34:03.138Z,3.20
2022-10-17T13:36:32.710Z,6.13
2022-10-17T13:39:07.636Z,3.05
2022-10-17T13:41:38.319Z,4.07
2022-10-17T13:44:14.949Z,4.55
2022-10-17T13:49:26.030Z,5.38
2022-10-17T13:51:57.252Z,3.05
2022-10-17T13:54:37.847Z,8.90
2022-10-17T13:57:06.952Z,4.47
2022-10-17T13:59:40.165Z,4.75
2022-10-17T14:02:15.339Z,3.40
2022-10-17T14:08:23.788Z,2.15
2022-10-17T14:10:43.552Z,4.40
2022-10-17T14:13:22.062Z,2.42
2022-10-17T14:15:50.495Z,5.20
2022-10-17T14:18:21.864Z,8.55
2022-10-17T14:23:41.811Z,6.22
2022-10-17T14:26:13.424Z,4.47
2022-10-17T14:28:43.355Z,3.38
2022-10-17T14:33:54.911Z,4.43
2022-10-17T14:36:33.187Z,8.45
2022-10-17T14:39:02.015Z,4.82
2022-10-17T14:41:48.822Z,3.33
2022-10-17T14:44:30.083Z,3.78
2022-10-17T14:47:18.294Z,7.72
2022-10-17T14:49:51.661Z,4.78
2022-10-17T14:52:30.134Z,9.00
2022-10-17T14:55:00.044Z,5.03
2022-10-17T14:57:41.693Z,7.20
2022-10-17T15:00:14.919Z,3.25
2022-10-17T15:02:42.895Z,4.68
2022-10-17T15:05:13.368Z,8.38
2022-10-17T15:07:43.451Z,4.50
2022-10-17T15:10:26.245Z,7.38
2022-10-17T15:12:59.332Z,8.70
2022-10-17T15:15:33.263Z,4.68
2022-10-17T15:18:01.224Z,5.93
2022-10-17T15:20:30.545Z,4.55
2022-10-17T15:23:01.263Z,5.13
2022-10-17T15:27:59.581Z,5.15
2022-10-17T15:30:29.802Z,4.65
2022-10-17T15:35:26.758Z,7.32
2022-10-17T15:42:54.351Z,5.68
2022-10-17T15:45:22.843Z,12.80
2022-10-17T15:47:53.271Z,7.00
2022-10-17T15:50:22.576Z,7.63
2022-10-17T15:52:51.085Z,5.00
2022-10-17T15:55:19.799Z,9.18
2022-10-17T16:00:19.840Z,5.57
2022-10-17T16:02:49.257Z,10.57
2022-10-17T16:05:23.113Z,7.05
2022-10-17T16:07:51.439Z,3.92
2022-10-17T16:10:20.684Z,9.77
2022-10-17T16:12:50.959Z,12.50
2022-10-17T16:15:22.686Z,8.80
2022-10-17T16:20:19.790Z,8.77
2022-10-17T16:25:20.930Z,11.00
2022-10-17T16:27:52.261Z,11.98
2022-10-17T16:35:26.977Z,8.65
2022-10-17T16:37:56.451Z,10.73
2022-10-17T16:40:24.475Z,7.57
2022-10-17T16:42:54.194Z,11.90
2022-10-17T16:45:24.253Z,15.20
2022-10-17T16:47:53.255Z,10.63
2022-10-17T16:50:21.387Z,15.27
2022-10-17T16:52:49.651Z,14.23
2022-10-17T16:55:19.515Z,13.35
2022-10-17T16:57:49.118Z,8.65
2022-10-17T17:00:19.918Z,15.23
2022-10-17T17:02:49.507Z,18.10
2022-10-17T17:05:18.203Z,17.10
2022-10-17T17:12:44.695Z,13.85
2022-10-17T17:15:12.650Z,14.30
2022-10-17T17:17:51.286Z,13.02
2022-10-17T17:20:21.500Z,21.65
2022-10-17T17:22:50.968Z,22.13
2022-10-17T17:25:19.131Z,14.10
2022-10-17T17:27:47.108Z,13.50
2022-10-17T17:30:14.946Z,17.35
2022-10-17T17:32:44.157Z,20.45
2022-10-17T17:35:12.244Z,13.95
2022-10-17T17:37:40.111Z,17.40
2022-10-17T17:40:09.131Z,13.77
2022-10-17T17:42:37.439Z,13.60
2022-10-17T17:50:03.730Z,18.15
2022-10-17T17:52:31.910Z,14.30
2022-10-17T17:59:58.390Z,16.30
2022-10-17T18:02:26.895Z,11.75
2022-10-17T18:04:54.774Z,18.55
2022-10-17T18:07:24.166Z,14.20
2022-10-17T18:12:20.237Z,12.23
2022-10-17T18:14:49.006Z,20.60
2022-10-17T18:17:17.118Z,16.17
2022-10-17T18:19:45.087Z,21.23
2022-10-17T18:22:12.968Z,17.45
2022-10-17T18:24:42.519Z,19.27
2022-10-17T18:32:06.588Z,22.75
2022-10-17T18:34:35.387Z,25.35
2022-10-17T18:37:03.315Z,19.55
2022-10-17T18:44:29.832Z,19.42
2022-10-17T18:47:02.917Z,19.23
2022-10-17T18:59:26.858Z,14.55
2022-10-17T20:19:10.100Z,19.42
2022-10-17T20:39:15.068Z,13.13
